sensor_id;sensor_type;location;lat;lon;timestamp;P1;durP1;ratioP1;P2;durP2;ratioP2
25437;SDS011;13364;49.084;9.978;2024-01-10T05:02:52;6.10;;;3.28;;
25437;SDS011;13364;49.084;9.978;2024-01-10T05:05:20;9.90;;;2.58;;
25437;SDS011;13364;49.084;9.978;2024-01-10T05:07:50;6.22;;;3.25;;
25437;SDS011;13364;49.084;9.978;2024-01-10T05:10:17;5.55;;;2.45;;
25437;SDS011;13364;49.084;9.978;2024-01-10T05:12:44;2.60;;;2.28;;
25437;SDS011;13364;49.084;9.978;2024-01-10T05:15:11;9.57;;;3.58;;
25437;SDS011;13364;49.084;9.978;2024-01-10T05:17:38;6.78;;;3.25;;
25437;SDS011;13364;49.084;9.978;2024-01-10T05:20:05;4.15;;;2.47;;
25437;SDS011;13364;49.084;9.978;2024-01-10T05:22:32;6.20;;;3.80;;
25437;SDS011;13364;49.084;9.978;2024-01-10T05:24:59;8.43;;;5.32;;
25437;SDS011;13364;49.084;9.978;2024-01-10T05:27:27;5.20;;;2.95;;
25437;SDS011;13364;49.084;9.978;2024-01-10T05:29:53;9.38;;;4.57;;
25437;SDS011;13364;49.084;9.978;2024-01-10T05:32:20;11.70;;;4.22;;
25437;SDS011;13364;49.084;9.978;2024-01-10T05:34:47;5.75;;;3.08;;
25437;SDS011;13364;49.084;9.978;2024-01-10T05:37:14;7.75;;;4.10;;
25437;SDS011;13364;49.084;9.978;2024-01-10T05:39:41;5.90;;;4.28;;
25437;SDS011;13364;49.084;9.978;2024-01-10T05:42:08;3.90;;;3.60;;
25437;SDS011;13364;49.084;9.978;2024-01-10T05:44:35;15.95;;;5.13;;
25437;SDS011;13364;49.084;9.978;2024-01-10T05:47:02;10.05;;;3.90;;
25437;SDS011;13364;49.084;9.978;2024-01-10T05:49:29;6.00;;;4.35;;
25437;SDS011;13364;49.084;9.978;2024-01-10T05:51:56;7.47;;;4.78;;
25437;SDS011;13364;49.084;9.978;2024-01-10T05:54:22;9.38;;;3.90;;
25437;SDS011;13364;49.084;9.978;2024-01-10T05:56:49;7.03;;;3.50;;
25437;SDS011;13364;49.084;9.978;2024-01-10T05:59:16;4.43;;;3.75;;
25437;SDS011;13364;49.084;9.978;2024-01-10T06:01:43;8.40;;;4.03;;
25437;SDS011;13364;49.084;9.978;2024-01-10T06:04:10;4.03;;;3.10;;
25437;SDS011;13364;49.084;9.978;2024-01-10T06:06:37;5.78;;;3.28;;
25437;SDS011;13364;49.084;9.978;2024-01-10T06:09:04;11.02;;;2.92;;
25437;SDS011;13364;49.084;9.978;2024-01-10T06:11:31;18.45;;;7.15;;
25437;SDS011;13364;49.084;9.978;2024-01-10T06:13:57;14.55;;;7.53;;
25437;SDS011;13364;49.084;9.978;2024-01-10T06:16:24;11.48;;;4.53;;
25437;SDS011;13364;49.084;9.978;2024-01-10T06:18:51;7.80;;;3.45;;
25437;SDS011;13364;49.084;9.978;2024-01-10T06:21:18;9.43;;;3.67;;
25437;SDS011;13364;49.084;9.978;2024-01-10T06:23:45;12.52;;;6.00;;
25437;SDS011;13364;49.084;9.978;2024-01-10T06:26:13;12.80;;;5.55;;
25437;SDS011;13364;49.084;9.978;2024-01-10T06:28:39;7.20;;;3.38;;
25437;SDS011;13364;49.084;9.978;2024-01-10T06:31:07;8.07;;;5.88;;
25437;SDS011;13364;49.084;9.978;2024-01-10T06:33:38;6.55;;;3.65;;
25437;SDS011;13364;49.084;9.978;2024-01-10T06:36:05;8.85;;;4.97;;
25437;SDS011;13364;49.084;9.978;2024-01-10T06:38:31;11.07;;;5.60;;
25437;SDS011;13364;49.084;9.978;2024-01-10T06:40:58;17.77;;;5.50;;
25437;SDS011;13364;49.084;9.978;2024-01-10T06:43:25;6.82;;;3.70;;
25437;SDS011;13364;49.084;9.978;2024-01-10T06:45:55;4.15;;;3.67;;
25437;SDS011;13364;49.084;9.978;2024-01-10T06:48:21;8.25;;;4.63;;
25437;SDS011;13364;49.084;9.978;2024-01-10T06:50:48;13.20;;;4.97;;
25437;SDS011;13364;49.084;9.978;2024-01-10T06:53:15;15.15;;;3.70;;
25437;SDS011;13364;49.084;9.978;2024-01-10T06:55:42;16.10;;;3.42;;
25437;SDS011;13364;49.084;9.978;2024-01-10T06:58:09;8.50;;;3.60;;
25437;SDS011;13364;49.084;9.978;2024-01-10T07:00:35;7.75;;;3.15;;
25437;SDS011;13364;49.084;9.978;2024-01-10T07:03:04;11.18;;;3.70;;
25437;SDS011;13364;49.084;9.978;2024-01-10T07:05:31;12.73;;;4.78;;
25437;SDS011;13364;49.084;9.978;2024-01-10T07:07:58;8.07;;;4.43;;
25437;SDS011;13364;49.084;9.978;2024-01-10T07:10:29;6.93;;;4.57;;
25437;SDS011;13364;49.084;9.978;2024-01-10T07:12:55;12.77;;;6.65;;
25437;SDS011;13364;49.084;9.978;2024-01-10T07:15:22;6.57;;;3.83;;
25437;SDS011;13364;49.084;9.978;2024-01-10T07:17:49;10.55;;;4.65;;
25437;SDS011;13364;49.084;9.978;2024-01-10T07:20:16;7.00;;;4.07;;
25437;SDS011;13364;49.084;9.978;2024-01-10T07:22:43;8.82;;;4.45;;
25437;SDS011;13364;49.084;9.978;2024-01-10T07:25:11;6.28;;;3.58;;
25437;SDS011;13364;49.084;9.978;2024-01-10T07:27:40;7.32;;;3.47;;
25437;SDS011;13364;49.084;9.978;2024-01-10T07:30:08;5.45;;;3.95;;
25437;SDS011;13364;49.084;9.978;2024-01-10T07:32:43;9.32;;;4.70;;
25437;SDS011;13364;49.084;9.978;2024-01-10T07:35:11;12.02;;;4.00;;
25437;SDS011;13364;49.084;9.978;2024-01-10T07:37:40;9.70;;;3.65;;
25437;SDS011;13364;49.084;9.978;2024-01-10T07:40:08;6.32;;;3.75;;
25437;SDS011;13364;49.084;9.978;2024-01-10T07:42:37;16.02;;;5.10;;
25437;SDS011;13364;49.084;9.978;2024-01-10T07:45:04;4.55;;;4.07;;
25437;SDS011;13364;49.084;9.978;2024-01-10T07:47:32;12.48;;;6.03;;
25437;SDS011;13364;49.084;9.978;2024-01-10T07:50:06;8.80;;;5.00;;
25437;SDS011;13364;49.084;9.978;2024-01-10T07:52:34;6.07;;;4.10;;
25437;SDS011;13364;49.084;9.978;2024-01-10T07:55:01;8.38;;;4.55;;
25437;SDS011;13364;49.084;9.978;2024-01-10T07:57:31;6.95;;;2.67;;
25437;SDS011;13364;49.084;9.978;2024-01-10T07:59:58;4.97;;;3.38;;
25437;SDS011;13364;49.084;9.978;2024-01-10T08:02:25;8.57;;;5.15;;
25437;SDS011;13364;49.084;9.978;2024-01-10T08:04:52;6.53;;;3.88;;
25437;SDS011;13364;49.084;9.978;2024-01-10T08:07:19;6.95;;;3.65;;
25437;SDS011;13364;49.084;9.978;2024-01-10T08:09:46;5.20;;;3.53;;
25437;SDS011;13364;49.084;9.978;2024-01-10T08:12:13;6.18;;;4.10;;
25437;SDS011;13364;49.084;9.978;2024-01-10T08:14:40;7.68;;;4.65;;
25437;SDS011;13364;49.084;9.978;2024-01-10T08:17:07;11.68;;;4.57;;
25437;SDS011;13364;49.084;9.978;2024-01-10T08:19:34;5.97;;;4.43;;
25437;SDS011;13364;49.084;9.978;2024-01-10T08:22:02;13.15;;;4.20;;
25437;SDS011;13364;49.084;9.978;2024-01-10T08:24:29;13.63;;;5.15;;
25437;SDS011;13364;49.084;9.978;2024-01-10T08:26:55;6.90;;;4.97;;
25437;SDS011;13364;49.084;9.978;2024-01-10T08:29:22;10.63;;;3.60;;
25437;SDS011;13364;49.084;9.978;2024-01-10T08:31:51;9.60;;;6.82;;
25437;SDS011;13364;49.084;9.978;2024-01-10T08:34:18;7.95;;;5.93;;
25437;SDS011;13364;49.084;9.978;2024-01-10T08:36:45;6.57;;;5.10;;
25437;SDS011;13364;49.084;9.978;2024-01-10T08:39:12;8.77;;;3.78;;
25437;SDS011;13364;49.084;9.978;2024-01-10T08:41:38;7.88;;;5.53;;
25437;SDS011;13364;49.084;9.978;2024-01-10T08:44:10;13.15;;;6.57;;
25437;SDS011;13364;49.084;9.978;2024-01-10T08:46:37;7.97;;;5.10;;
25437;SDS011;13364;49.084;9.978;2024-01-10T08:49:04;13.88;;;5.70;;
25437;SDS011;13364;49.084;9.978;2024-01-10T08:51:31;11.35;;;4.93;;
25437;SDS011;13364;49.084;9.978;2024-01-10T08:53:58;6.82;;;5.28;;
25437;SDS011;13364;49.084;9.978;2024-01-10T08:56:25;14.50;;;6.63;;
25437;SDS011;13364;49.084;9.978;2024-01-10T08:58:52;13.30;;;7.45;;
25437;SDS011;13364;49.084;9.978;2024-01-10T09:01:19;13.13;;;6.00;;
25437;SDS011;13364;49.084;9.978;2024-01-10T09:03:46;9.57;;;6.20;;
25437;SDS011;13364;49.084;9.978;2024-01-10T09:06:13;12.43;;;5.32;;
25437;SDS011;13364;49.084;9.978;2024-01-10T09:08:40;15.32;;;7.35;;
25437;SDS011;13364;49.084;9.978;2024-01-10T09:11:06;14.18;;;6.80;;
25437;SDS011;13364;49.084;9.978;2024-01-10T09:13:33;12.23;;;6.00;;
25437;SDS011;13364;49.084;9.978;2024-01-10T09:16:00;17.80;;;7.15;;
25437;SDS011;13364;49.084;9.978;2024-01-10T09:18:27;15.15;;;7.53;;
25437;SDS011;13364;49.084;9.978;2024-01-10T09:20:55;16.00;;;7.50;;
25437;SDS011;13364;49.084;9.978;2024-01-10T09:23:23;19.88;;;8.20;;
25437;SDS011;13364;49.084;9.978;2024-01-10T09:25:50;17.50;;;7.95;;
25437;SDS011;13364;49.084;9.978;2024-01-10T09:28:16;12.00;;;6.55;;
25437;SDS011;13364;49.084;9.978;2024-01-10T09:30:43;16.10;;;9.40;;
25437;SDS011;13364;49.084;9.978;2024-01-10T09:33:10;17.08;;;9.77;;
25437;SDS011;13364;49.084;9.978;2024-01-10T09:35:37;18.73;;;7.00;;
25437;SDS011;13364;49.084;9.978;2024-01-10T09:38:04;18.35;;;7.75;;
25437;SDS011;13364;49.084;9.978;2024-01-10T09:40:31;22.20;;;8.07;;
25437;SDS011;13364;49.084;9.978;2024-01-10T09:42:58;14.13;;;6.63;;
25437;SDS011;13364;49.084;9.978;2024-01-10T09:45:24;20.05;;;7.90;;
25437;SDS011;13364;49.084;9.978;2024-01-10T09:47:54;13.93;;;7.45;;
25437;SDS011;13364;49.084;9.978;2024-01-10T09:50:25;24.30;;;13.43;;
25437;SDS011;13364;49.084;9.978;2024-01-10T09:53:04;26.27;;;11.00;;
25437;SDS011;13364;49.084;9.978;2024-01-10T09:55:36;19.58;;;9.07;;
25437;SDS011;13364;49.084;9.978;2024-01-10T09:58:06;21.20;;;8.25;;
25437;SDS011;13364;49.084;9.978;2024-01-10T10:00:35;16.02;;;8.68;;
25437;SDS011;13364;49.084;9.978;2024-01-10T10:03:09;18.65;;;9.15;;
25437;SDS011;13364;49.084;9.978;2024-01-10T10:05:38;38.10;;;15.18;;
25437;SDS011;13364;49.084;9.978;2024-01-10T10:08:09;21.02;;;11.52;;
25437;SDS011;13364;49.084;9.978;2024-01-10T10:13:11;24.50;;;9.88;;
25437;SDS011;13364;49.084;9.978;2024-01-10T10:15:57;19.63;;;8.68;;
25437;SDS011;13364;49.084;9.978;2024-01-10T10:18:28;24.58;;;10.25;;
25437;SDS011;13364;49.084;9.978;2024-01-10T10:21:09;16.77;;;9.20;;
25437;SDS011;13364;49.084;9.978;2024-01-10T10:23:40;18.55;;;7.50;;
25437;SDS011;13364;49.084;9.978;2024-01-10T10:26:13;13.15;;;7.70;;
25437;SDS011;13364;49.084;9.978;2024-01-10T10:28:50;18.58;;;7.95;;
25437;SDS011;13364;49.084;9.978;2024-01-10T10:31:18;16.08;;;10.05;;
25437;SDS011;13364;49.084;9.978;2024-01-10T10:33:46;16.48;;;8.10;;
25437;SDS011;13364;49.084;9.978;2024-01-10T10:36:16;25.52;;;9.55;;
25437;SDS011;13364;49.084;9.978;2024-01-10T10:38:43;17.35;;;8.45;;
25437;SDS011;13364;49.084;9.978;2024-01-10T10:41:10;16.13;;;8.40;;
25437;SDS011;13364;49.084;9.978;2024-01-10T10:43:38;26.70;;;7.90;;
25437;SDS011;13364;49.084;9.978;2024-01-10T10:46:06;15.05;;;7.88;;
25437;SDS011;13364;49.084;9.978;2024-01-10T10:48:34;23.30;;;8.15;;
25437;SDS011;13364;49.084;9.978;2024-01-10T10:51:06;22.33;;;9.05;;
25437;SDS011;13364;49.084;9.978;2024-01-10T10:53:51;18.17;;;8.13;;
25437;SDS011;13364;49.084;9.978;2024-01-10T10:56:18;15.90;;;8.85;;
25437;SDS011;13364;49.084;9.978;2024-01-10T10:58:46;19.95;;;10.20;;
25437;SDS011;13364;49.084;9.978;2024-01-10T11:01:15;18.40;;;8.80;;
25437;SDS011;13364;49.084;9.978;2024-01-10T11:03:42;18.80;;;9.63;;
25437;SDS011;13364;49.084;9.978;2024-01-10T11:06:11;16.90;;;6.68;;
25437;SDS011;13364;49.084;9.978;2024-01-10T11:08:45;16.35;;;7.90;;
25437;SDS011;13364;49.084;9.978;2024-01-10T11:14:39;16.73;;;8.45;;
25437;SDS011;13364;49.084;9.978;2024-01-10T11:20:14;14.45;;;7.97;;
25437;SDS011;13364;49.084;9.978;2024-01-10T11:23:22;15.43;;;8.48;;
25437;SDS011;13364;49.084;9.978;2024-01-10T11:26:08;21.88;;;8.20;;
25437;SDS011;13364;49.084;9.978;2024-01-10T11:28:35;19.63;;;9.90;;
25437;SDS011;13364;49.084;9.978;2024-01-10T11:31:05;16.80;;;9.05;;
25437;SDS011;13364;49.084;9.978;2024-01-10T11:33:36;20.02;;;9.77;;
25437;SDS011;13364;49.084;9.978;2024-01-10T11:36:12;21.02;;;9.13;;
25437;SDS011;13364;49.084;9.978;2024-01-10T11:41:34;24.25;;;10.13;;
25437;SDS011;13364;49.084;9.978;2024-01-10T11:46:40;20.27;;;8.68;;
25437;SDS011;13364;49.084;9.978;2024-01-10T11:49:19;19.42;;;9.85;;
25437;SDS011;13364;49.084;9.978;2024-01-10T11:51:52;17.00;;;8.60;;
25437;SDS011;13364;49.084;9.978;2024-01-10T11:59:43;23.08;;;9.18;;
25437;SDS011;13364;49.084;9.978;2024-01-10T12:02:14;14.98;;;7.82;;
25437;SDS011;13364;49.084;9.978;2024-01-10T12:04:41;18.90;;;8.77;;
25437;SDS011;13364;49.084;9.978;2024-01-10T12:07:14;19.17;;;10.63;;
25437;SDS011;13364;49.084;9.978;2024-01-10T12:09:43;21.02;;;9.02;;
25437;SDS011;13364;49.084;9.978;2024-01-10T12:12:10;21.77;;;10.02;;
25437;SDS011;13364;49.084;9.978;2024-01-10T12:14:39;18.17;;;9.40;;
25437;SDS011;13364;49.084;9.978;2024-01-10T12:17:06;19.42;;;9.30;;
25437;SDS011;13364;49.084;9.978;2024-01-10T12:19:36;16.73;;;9.55;;
25437;SDS011;13364;49.084;9.978;2024-01-10T12:22:04;28.05;;;10.43;;
25437;SDS011;13364;49.084;9.978;2024-01-10T12:24:34;29.73;;;11.50;;
25437;SDS011;13364;49.084;9.978;2024-01-10T12:27:05;19.73;;;9.23;;
25437;SDS011;13364;49.084;9.978;2024-01-10T12:29:32;21.45;;;9.65;;
25437;SDS011;13364;49.084;9.978;2024-01-10T12:31:59;22.25;;;10.65;;
25437;SDS011;13364;49.084;9.978;2024-01-10T12:34:26;17.83;;;9.90;;
25437;SDS011;13364;49.084;9.978;2024-01-10T12:36:56;24.35;;;10.07;;
25437;SDS011;13364;49.084;9.978;2024-01-10T12:39:23;25.73;;;10.85;;
25437;SDS011;13364;49.084;9.978;2024-01-10T12:41:51;22.58;;;10.80;;
25437;SDS011;13364;49.084;9.978;2024-01-10T12:44:18;21.35;;;10.70;;
25437;SDS011;13364;49.084;9.978;2024-01-10T12:46:51;19.70;;;10.27;;
25437;SDS011;13364;49.084;9.978;2024-01-10T12:49:19;25.77;;;11.40;;
25437;SDS011;13364;49.084;9.978;2024-01-10T12:51:46;24.50;;;11.23;;
25437;SDS011;13364;49.084;9.978;2024-01-10T12:54:14;17.38;;;9.27;;
25437;SDS011;13364;49.084;9.978;2024-01-10T12:56:43;22.70;;;11.00;;
25437;SDS011;13364;49.084;9.978;2024-01-10T12:59:10;27.35;;;10.77;;
25437;SDS011;13364;49.084;9.978;2024-01-10T13:01:37;21.85;;;11.43;;
25437;SDS011;13364;49.084;9.978;2024-01-10T13:04:04;24.20;;;9.73;;
25437;SDS011;13364;49.084;9.978;2024-01-10T13:06:34;27.45;;;11.27;;
25437;SDS011;13364;49.084;9.978;2024-01-10T13:09:02;24.02;;;10.32;;
25437;SDS011;13364;49.084;9.978;2024-01-10T13:11:29;21.58;;;8.90;;
25437;SDS011;13364;49.084;9.978;2024-01-10T13:13:56;27.17;;;11.30;;
25437;SDS011;13364;49.084;9.978;2024-01-10T13:16:23;22.55;;;9.93;;
25437;SDS011;13364;49.084;9.978;2024-01-10T13:18:51;23.80;;;11.00;;
25437;SDS011;13364;49.084;9.978;2024-01-10T13:21:20;23.25;;;10.18;;
25437;SDS011;13364;49.084;9.978;2024-01-10T13:23:47;23.63;;;11.48;;
25437;SDS011;13364;49.084;9.978;2024-01-10T13:26:13;20.10;;;10.18;;
25437;SDS011;13364;49.084;9.978;2024-01-10T13:28:42;20.63;;;10.48;;
25437;SDS011;13364;49.084;9.978;2024-01-10T13:31:09;24.13;;;10.85;;
25437;SDS011;13364;49.084;9.978;2024-01-10T13:33:37;19.58;;;9.38;;
25437;SDS011;13364;49.084;9.978;2024-01-10T13:36:12;30.42;;;12.35;;
25437;SDS011;13364;49.084;9.978;2024-01-10T13:38:39;24.35;;;10.88;;
25437;SDS011;13364;49.084;9.978;2024-01-10T13:41:06;23.27;;;11.68;;
25437;SDS011;13364;49.084;9.978;2024-01-10T13:43:33;22.35;;;10.60;;
25437;SDS011;13364;49.084;9.978;2024-01-10T13:46:00;21.90;;;9.07;;
25437;SDS011;13364;49.084;9.978;2024-01-10T13:48:31;26.33;;;11.73;;
25437;SDS011;13364;49.084;9.978;2024-01-10T13:50:58;25.25;;;10.38;;
25437;SDS011;13364;49.084;9.978;2024-01-10T13:53:25;20.38;;;10.55;;
25437;SDS011;13364;49.084;9.978;2024-01-10T13:55:52;20.38;;;10.75;;
25437;SDS011;13364;49.084;9.978;2024-01-10T13:58:19;21.60;;;9.55;;
25437;SDS011;13364;49.084;9.978;2024-01-10T14:00:48;19.75;;;10.95;;
25437;SDS011;13364;49.084;9.978;2024-01-10T14:03:16;23.20;;;10.27;;
25437;SDS011;13364;49.084;9.978;2024-01-10T14:05:43;20.30;;;10.30;;
25437;SDS011;13364;49.084;9.978;2024-01-10T14:08:10;22.23;;;9.88;;
25437;SDS011;13364;49.084;9.978;2024-01-10T14:10:37;22.15;;;9.93;;
25437;SDS011;13364;49.084;9.978;2024-01-10T14:13:05;17.33;;;9.88;;
25437;SDS011;13364;49.084;9.978;2024-01-10T14:15:33;17.27;;;8.70;;
25437;SDS011;13364;49.084;9.978;2024-01-10T14:18:00;23.65;;;11.00;;
25437;SDS011;13364;49.084;9.978;2024-01-10T14:20:27;18.17;;;9.15;;
25437;SDS011;13364;49.084;9.978;2024-01-10T14:22:54;26.92;;;10.65;;
25437;SDS011;13364;49.084;9.978;2024-01-10T14:25:21;30.85;;;13.05;;
25437;SDS011;13364;49.084;9.978;2024-01-10T14:27:47;26.63;;;11.63;;
25437;SDS011;13364;49.084;9.978;2024-01-10T14:30:14;23.73;;;11.02;;
25437;SDS011;13364;49.084;9.978;2024-01-10T14:32:42;24.52;;;10.98;;
25437;SDS011;13364;49.084;9.978;2024-01-10T14:35:09;17.33;;;9.38;;
25437;SDS011;13364;49.084;9.978;2024-01-10T14:37:37;28.58;;;12.55;;
25437;SDS011;13364;49.084;9.978;2024-01-10T14:40:04;30.98;;;12.43;;
25437;SDS011;13364;49.084;9.978;2024-01-10T14:42:33;26.60;;;12.70;;
25437;SDS011;13364;49.084;9.978;2024-01-10T14:45:00;21.35;;;10.40;;
25437;SDS011;13364;49.084;9.978;2024-01-10T14:47:27;20.55;;;9.82;;
25437;SDS011;13364;49.084;9.978;2024-01-10T14:49:55;19.48;;;10.82;;
25437;SDS011;13364;49.084;9.978;2024-01-10T14:52:25;34.03;;;14.25;;
25437;SDS011;13364;49.084;9.978;2024-01-10T14:54:52;20.40;;;10.55;;
25437;SDS011;13364;49.084;9.978;2024-01-10T14:57:19;16.48;;;9.45;;
25437;SDS011;13364;49.084;9.978;2024-01-10T14:59:47;21.25;;;9.88;;
25437;SDS011;13364;49.084;9.978;2024-01-10T15:02:15;18.70;;;10.27;;
25437;SDS011;13364;49.084;9.978;2024-01-10T15:04:44;22.60;;;9.90;;
25437;SDS011;13364;49.084;9.978;2024-01-10T15:07:12;19.42;;;9.82;;
25437;SDS011;13364;49.084;9.978;2024-01-10T15:09:39;20.92;;;11.18;;
25437;SDS011;13364;49.084;9.978;2024-01-10T15:12:08;22.70;;;10.80;;
25437;SDS011;13364;49.084;9.978;2024-01-10T15:14:36;22.35;;;10.00;;
25437;SDS011;13364;49.084;9.978;2024-01-10T15:19:35;22.73;;;10.05;;
25437;SDS011;13364;49.084;9.978;2024-01-10T15:22:02;36.90;;;12.38;;
25437;SDS011;13364;49.084;9.978;2024-01-10T15:24:30;25.15;;;11.68;;
25437;SDS011;13364;49.084;9.978;2024-01-10T15:26:57;21.50;;;9.75;;
25437;SDS011;13364;49.084;9.978;2024-01-10T15:29:28;22.23;;;11.90;;
25437;SDS011;13364;49.084;9.978;2024-01-10T15:31:56;26.42;;;10.68;;
25437;SDS011;13364;49.084;9.978;2024-01-10T15:34:24;25.48;;;10.43;;
25437;SDS011;13364;49.084;9.978;2024-01-10T15:36:51;23.20;;;10.43;;
25437;SDS011;13364;49.084;9.978;2024-01-10T15:39:18;26.23;;;10.68;;
25437;SDS011;13364;49.084;9.978;2024-01-10T15:41:50;26.10;;;10.95;;
25437;SDS011;13364;49.084;9.978;2024-01-10T15:44:18;22.33;;;11.13;;
25437;SDS011;13364;49.084;9.978;2024-01-10T15:46:47;30.45;;;11.48;;
25437;SDS011;13364;49.084;9.978;2024-01-10T15:49:14;28.15;;;11.88;;
25437;SDS011;13364;49.084;9.978;2024-01-10T15:51:42;20.60;;;9.80;;
25437;SDS011;13364;49.084;9.978;2024-01-10T15:54:08;17.05;;;10.57;;
25437;SDS011;13364;49.084;9.978;2024-01-10T15:56:36;26.23;;;12.85;;
25437;SDS011;13364;49.084;9.978;2024-01-10T15:59:06;23.35;;;12.23;;
25437;SDS011;13364;49.084;9.978;2024-01-10T16:01:34;22.30;;;13.52;;
25437;SDS011;13364;49.084;9.978;2024-01-10T16:04:01;25.90;;;12.63;;
25437;SDS011;13364;49.084;9.978;2024-01-10T16:06:31;29.33;;;13.88;;
25437;SDS011;13364;49.084;9.978;2024-01-10T16:08:59;28.52;;;14.52;;
25437;SDS011;13364;49.084;9.978;2024-01-10T16:11:27;29.50;;;13.05;;
25437;SDS011;13364;49.084;9.978;2024-01-10T16:13:53;34.22;;;14.18;;
25437;SDS011;13364;49.084;9.978;2024-01-10T16:16:26;35.42;;;15.38;;
25437;SDS011;13364;49.084;9.978;2024-01-10T16:18:56;25.73;;;12.55;;
25437;SDS011;13364;49.084;9.978;2024-01-10T16:21:24;25.83;;;12.45;;
25437;SDS011;13364;49.084;9.978;2024-01-10T16:23:50;27.30;;;11.68;;
25437;SDS011;13364;49.084;9.978;2024-01-10T16:26:17;21.17;;;11.65;;
25437;SDS011;13364;49.084;9.978;2024-01-10T16:28:44;22.48;;;10.68;;
25437;SDS011;13364;49.084;9.978;2024-01-10T16:31:12;21.63;;;12.15;;
25437;SDS011;13364;49.084;9.978;2024-01-10T16:33:39;25.98;;;12.80;;
25437;SDS011;13364;49.084;9.978;2024-01-10T16:36:06;22.48;;;12.27;;
25437;SDS011;13364;49.084;9.978;2024-01-10T16:38:33;22.73;;;10.35;;
25437;SDS011;13364;49.084;9.978;2024-01-10T16:41:00;27.33;;;13.10;;
25437;SDS011;13364;49.084;9.978;2024-01-10T16:43:27;26.75;;;12.75;;
25437;SDS011;13364;49.084;9.978;2024-01-10T16:45:54;28.60;;;12.68;;
25437;SDS011;13364;49.084;9.978;2024-01-10T16:48:22;29.73;;;11.80;;
25437;SDS011;13364;49.084;9.978;2024-01-10T16:50:50;26.08;;;12.30;;
25437;SDS011;13364;49.084;9.978;2024-01-10T16:53:17;21.88;;;10.38;;
25437;SDS011;13364;49.084;9.978;2024-01-10T16:55:43;21.10;;;10.00;;
25437;SDS011;13364;49.084;9.978;2024-01-10T16:58:10;25.65;;;11.45;;
25437;SDS011;13364;49.084;9.978;2024-01-10T17:00:37;21.75;;;10.38;;
25437;SDS011;13364;49.084;9.978;2024-01-10T17:03:04;17.67;;;9.52;;
25437;SDS011;13364;49.084;9.978;2024-01-10T17:05:31;20.75;;;9.02;;
25437;SDS011;13364;49.084;9.978;2024-01-10T17:08:04;20.15;;;10.30;;
25437;SDS011;13364;49.084;9.978;2024-01-10T17:10:31;18.05;;;10.93;;
25437;SDS011;13364;49.084;9.978;2024-01-10T17:12:57;24.17;;;10.45;;
25437;SDS011;13364;49.084;9.978;2024-01-10T17:15:25;22.40;;;12.15;;
25437;SDS011;13364;49.084;9.978;2024-01-10T17:17:52;26.70;;;11.55;;
25437;SDS011;13364;49.084;9.978;2024-01-10T17:20:19;22.23;;;10.88;;
25437;SDS011;13364;49.084;9.978;2024-01-10T17:22:46;25.00;;;11.75;;
25437;SDS011;13364;49.084;9.978;2024-01-10T17:25:13;24.10;;;10.73;;
25437;SDS011;13364;49.084;9.978;2024-01-10T17:27:39;24.23;;;12.15;;
25437;SDS011;13364;49.084;9.978;2024-01-10T17:30:10;19.75;;;11.07;;
25437;SDS011;13364;49.084;9.978;2024-01-10T17:32:37;28.80;;;13.57;;
25437;SDS011;13364;49.084;9.978;2024-01-10T17:35:04;25.98;;;11.63;;
25437;SDS011;13364;49.084;9.978;2024-01-10T17:37:31;32.63;;;13.93;;
25437;SDS011;13364;49.084;9.978;2024-01-10T17:39:58;36.33;;;13.18;;
25437;SDS011;13364;49.084;9.978;2024-01-10T17:42:25;31.60;;;12.55;;
25437;SDS011;13364;49.084;9.978;2024-01-10T17:44:52;18.73;;;8.52;;
25437;SDS011;13364;49.084;9.978;2024-01-10T17:47:19;17.65;;;8.60;;
25437;SDS011;13364;49.084;9.978;2024-01-10T17:49:45;23.13;;;13.02;;
25437;SDS011;13364;49.084;9.978;2024-01-10T17:52:12;21.98;;;11.30;;
25437;SDS011;13364;49.084;9.978;2024-01-10T17:54:39;24.63;;;11.40;;
25437;SDS011;13364;49.084;9.978;2024-01-10T17:57:06;17.25;;;9.93;;
25437;SDS011;13364;49.084;9.978;2024-01-10T17:59:33;27.02;;;11.85;;
25437;SDS011;13364;49.084;9.978;2024-01-10T18:02:00;19.40;;;12.25;;
25437;SDS011;13364;49.084;9.978;2024-01-10T18:04:27;32.45;;;13.90;;
25437;SDS011;13364;49.084;9.978;2024-01-10T18:06:55;23.50;;;11.90;;
25437;SDS011;13364;49.084;9.978;2024-01-10T18:09:22;28.60;;;12.45;;
25437;SDS011;13364;49.084;9.978;2024-01-10T18:11:49;25.58;;;13.80;;
25437;SDS011;13364;49.084;9.978;2024-01-10T18:14:17;31.35;;;12.15;;
25437;SDS011;13364;49.084;9.978;2024-01-10T18:16:44;31.48;;;13.57;;
25437;SDS011;13364;49.084;9.978;2024-01-10T18:19:11;20.45;;;11.00;;
25437;SDS011;13364;49.084;9.978;2024-01-10T18:21:38;37.30;;;14.57;;
25437;SDS011;13364;49.084;9.978;2024-01-10T18:24:05;35.10;;;15.00;;
25437;SDS011;13364;49.084;9.978;2024-01-10T18:26:32;27.40;;;10.98;;
25437;SDS011;13364;49.084;9.978;2024-01-10T18:28:59;27.10;;;11.25;;
25437;SDS011;13364;49.084;9.978;2024-01-10T18:31:26;26.08;;;12.73;;
25437;SDS011;13364;49.084;9.978;2024-01-10T18:33:53;21.50;;;11.50;;
25437;SDS011;13364;49.084;9.978;2024-01-10T18:36:20;21.13;;;10.20;;
25437;SDS011;13364;49.084;9.978;2024-01-10T18:38:47;30.50;;;8.65;;
25437;SDS011;13364;49.084;9.978;2024-01-10T18:41:16;25.48;;;11.30;;
25437;SDS011;13364;49.084;9.978;2024-01-10T18:43:43;29.75;;;11.93;;
25437;SDS011;13364;49.084;9.978;2024-01-10T18:46:09;23.08;;;11.05;;
25437;SDS011;13364;49.084;9.978;2024-01-10T18:48:37;29.13;;;13.75;;
25437;SDS011;13364;49.084;9.978;2024-01-10T18:51:05;30.42;;;13.77;;
25437;SDS011;13364;49.084;9.978;2024-01-10T18:53:31;32.63;;;15.70;;
25437;SDS011;13364;49.084;9.978;2024-01-10T18:56:00;30.48;;;15.45;;
25437;SDS011;13364;49.084;9.978;2024-01-10T18:58:27;38.72;;;16.40;;
25437;SDS011;13364;49.084;9.978;2024-01-10T19:00:54;51.83;;;19.50;;
25437;SDS011;13364;49.084;9.978;2024-01-10T19:03:21;47.65;;;17.38;;
25437;SDS011;13364;49.084;9.978;2024-01-10T19:05:48;44.15;;;18.23;;
25437;SDS011;13364;49.084;9.978;2024-01-10T19:08:15;47.17;;;17.65;;
25437;SDS011;13364;49.084;9.978;2024-01-10T19:10:42;34.75;;;14.48;;
25437;SDS011;13364;49.084;9.978;2024-01-10T19:13:09;31.45;;;14.80;;
25437;SDS011;13364;49.084;9.978;2024-01-10T19:15:35;36.58;;;15.27;;
25437;SDS011;13364;49.084;9.978;2024-01-10T19:18:02;29.10;;;13.70;;
25437;SDS011;13364;49.084;9.978;2024-01-10T19:20:29;21.70;;;10.32;;
25437;SDS011;13364;49.084;9.978;2024-01-10T19:22:57;29.23;;;10.93;;
25437;SDS011;13364;49.084;9.978;2024-01-10T19:25:25;18.42;;;9.75;;
25437;SDS011;13364;49.084;9.978;2024-01-10T19:27:53;23.95;;;11.23;;
25437;SDS011;13364;49.084;9.978;2024-01-10T19:30:22;15.20;;;8.65;;
25437;SDS011;13364;49.084;9.978;2024-01-10T19:32:49;18.55;;;8.73;;
25437;SDS011;13364;49.084;9.978;2024-01-10T19:35:17;31.05;;;11.52;;
25437;SDS011;13364;49.084;9.978;2024-01-10T19:37:44;37.30;;;13.73;;
25437;SDS011;13364;49.084;9.978;2024-01-10T19:40:11;35.05;;;15.60;;
25437;SDS011;13364;49.084;9.978;2024-01-10T19:42:38;21.25;;;13.23;;
25437;SDS011;13364;49.084;9.978;2024-01-10T19:45:05;16.52;;;10.10;;
25437;SDS011;13364;49.084;9.978;2024-01-10T19:47:33;21.30;;;10.98;;
25437;SDS011;13364;49.084;9.978;2024-01-10T19:50:00;19.50;;;9.60;;
25437;SDS011;13364;49.084;9.978;2024-01-10T19:52:27;20.67;;;8.30;;
25437;SDS011;13364;49.084;9.978;2024-01-10T19:54:54;13.90;;;7.72;;
25437;SDS011;13364;49.084;9.978;2024-01-10T19:57:21;18.17;;;9.80;;
25437;SDS011;13364;49.084;9.978;2024-01-10T19:59:48;23.50;;;10.02;;